Time;durP1;ratioP1;P1;durP2;ratioP2;P2;SDS_P1;SDS_P2;PMS_P1;PMS_P2;Temp;Humidity;BMP_temperature;BMP_pressure;BME280_temperature;BME280_humidity;BME280_pressure;Samples;Min_cycle;Max_cycle;Signal;HPM_P1;HPM_P2
2024/03/13 00:01:06;;;;;;;12.23;3.33;;;13.00;99.90;;;;;;7282147;19;20191;-77
2024/03/13 00:03:33;;;;;;;12.67;3.80;;;13.00;99.90;;;;;;7283861;19;20191;-77
2024/03/13 00:06:00;;;;;;;12.67;4.20;;;13.00;99.90;;;;;;7301012;19;20201;-78
2024/03/13 00:08:26;;;;;;;11.30;4.20;;;13.10;99.90;;;;;;7306851;19;20182;-78
2024/03/13 00:10:53;;;;;;;14.17;4.43;;;13.00;99.90;;;;;;7283061;19;20272;-78
2024/03/13 00:13:20;;;;;;;14.17;4.67;;;13.00;99.90;;;;;;7284256;19;20196;-78
2024/03/13 00:15:46;;;;;;;13.70;4.97;;;13.00;99.90;;;;;;7283563;19;20191;-77
2024/03/13 00:18:11;;;;;;;14.40;4.40;;;13.00;99.90;;;;;;7284091;19;20189;-78
2024/03/13 00:20:37;;;;;;;19.67;5.33;;;13.00;99.90;;;;;;7285670;19;20274;-79
2024/03/13 00:23:03;;;;;;;12.20;4.53;;;13.10;99.90;;;;;;7283305;19;20189;-78
2024/03/13 00:25:29;;;;;;;15.37;4.87;;;13.00;99.90;;;;;;7300126;19;20200;-77
2024/03/13 00:27:55;;;;;;;11.10;4.73;;;13.00;99.90;;;;;;7297807;19;20952;-78
2024/03/13 00:30:22;;;;;;;11.97;5.00;;;12.90;99.90;;;;;;7283455;19;20202;-78
2024/03/13 00:32:53;;;;;;;12.10;4.87;;;12.90;99.90;;;;;;7284924;19;20197;-78
2024/03/13 00:35:20;;;;;;;11.03;4.83;;;12.90;99.90;;;;;;7284500;19;20249;-78
2024/03/13 00:37:49;;;;;;;11.50;5.20;;;12.90;99.90;;;;;;7285798;19;20198;-78
2024/03/13 00:40:15;;;;;;;12.03;5.40;;;12.90;99.90;;;;;;7282338;19;20215;-78
2024/03/13 00:42:42;;;;;;;16.30;6.20;;;12.90;99.90;;;;;;7282814;19;20194;-78
2024/03/13 00:45:11;;;;;;;14.93;6.10;;;13.00;99.90;;;;;;7284859;19;20178;-78
2024/03/13 00:47:37;;;;;;;17.50;6.67;;;13.00;99.90;;;;;;7282989;19;20218;-78
2024/03/13 00:50:07;;;;;;;18.23;6.83;;;13.00;99.90;;;;;;7282238;19;20211;-78
2024/03/13 00:52:33;;;;;;;18.13;6.90;;;13.00;99.90;;;;;;7283412;19;20198;-78
2024/03/13 00:54:59;;;;;;;17.73;7.23;;;13.00;99.90;;;;;;7299486;19;20620;-77
2024/03/13 00:57:26;;;;;;;19.30;7.43;;;13.00;99.90;;;;;;7293579;19;20186;-78
2024/03/13 00:59:53;;;;;;;21.13;8.30;;;13.00;99.90;;;;;;7281051;19;20182;-77
2024/03/13 01:02:20;;;;;;;18.40;7.00;;;12.90;99.90;;;;;;7283681;19;20202;-77
2024/03/13 01:04:48;;;;;;;18.83;7.50;;;12.90;99.90;;;;;;7280219;19;20181;-77
2024/03/13 01:07:15;;;;;;;17.17;7.00;;;12.80;99.90;;;;;;7282164;19;20253;-77
2024/03/13 01:09:41;;;;;;;20.10;7.07;;;12.80;99.90;;;;;;7281247;19;20188;-77
2024/03/13 01:12:08;;;;;;;18.30;6.67;;;12.80;99.90;;;;;;7281626;19;20191;-77
2024/03/13 01:14:34;;;;;;;17.33;6.40;;;12.80;99.90;;;;;;7283665;19;20192;-77
2024/03/13 01:17:02;;;;;;;17.13;6.23;;;12.80;99.90;;;;;;7293209;19;20563;-77
2024/03/13 01:19:34;;;;;;;20.30;6.20;;;12.80;99.90;;;;;;7302941;19;20189;-77
2024/03/13 01:22:07;;;;;;;20.00;5.73;;;12.80;99.90;;;;;;7273582;19;20688;-77
2024/03/13 01:24:33;;;;;;;16.70;5.80;;;12.80;99.90;;;;;;7280732;19;20186;-77
2024/03/13 01:27:00;;;;;;;17.87;5.83;;;12.70;99.90;;;;;;7296919;19;20198;-77
2024/03/13 01:29:26;;;;;;;17.30;5.50;;;12.70;99.90;;;;;;7298590;19;20286;-77
2024/03/13 01:31:52;;;;;;;14.70;4.50;;;12.70;99.90;;;;;;7280065;19;20203;-77
2024/03/13 01:34:20;;;;;;;14.03;4.60;;;12.70;99.90;;;;;;7279916;19;20193;-78
2024/03/13 01:39:30;;;;;;;14.67;4.33;;;12.80;99.90;;;;;;7263910;19;20197;-78
2024/03/13 01:56:38;;;;;;;12.70;2.87;;;12.80;99.90;;;;;;7281872;19;20194;-77
2024/03/13 01:59:20;;;;;;;11.70;3.20;;;12.80;99.90;;;;;;7256643;19;20722;-77
2024/03/13 02:04:30;;;;;;;12.30;3.00;;;12.90;99.90;;;;;;7264431;19;20188;-78
2024/03/13 02:06:56;;;;;;;10.50;2.20;;;12.90;99.90;;;;;;7303576;19;20286;-77
2024/03/13 02:09:24;;;;;;;12.60;2.50;;;13.00;99.90;;;;;;7280199;19;20182;-78
2024/03/13 02:11:50;;;;;;;13.97;2.50;;;13.00;99.90;;;;;;7280749;19;20220;-78
2024/03/13 02:14:16;;;;;;;14.30;3.10;;;12.90;99.90;;;;;;7279140;19;20185;-78
2024/03/13 02:16:42;;;;;;;10.40;2.53;;;12.90;99.90;;;;;;7279925;19;20190;-77
2024/03/13 02:19:08;;;;;;;12.63;2.63;;;12.80;99.90;;;;;;7280095;19;21016;-77
2024/03/13 02:21:35;;;;;;;11.40;2.13;;;12.90;99.90;;;;;;7280339;19;20191;-77
2024/03/13 02:24:01;;;;;;;12.60;2.77;;;12.90;99.90;;;;;;7288231;19;21055;-77
2024/03/13 02:26:26;;;;;;;8.53;2.23;;;12.90;99.90;;;;;;7307514;19;20200;-78
2024/03/13 02:28:52;;;;;;;12.10;2.50;;;12.90;99.90;;;;;;7285771;19;20182;-77
2024/03/13 02:31:18;;;;;;;11.43;2.60;;;12.90;99.90;;;;;;7284626;19;20204;-77
2024/03/13 02:33:44;;;;;;;11.33;2.33;;;12.80;99.90;;;;;;7284179;19;20254;-77
2024/03/13 02:36:09;;;;;;;11.83;2.63;;;12.90;99.90;;;;;;7284909;19;20204;-77
2024/03/13 02:38:35;;;;;;;13.23;2.80;;;12.90;99.90;;;;;;7286314;19;20721;-77
2024/03/13 02:41:02;;;;;;;15.27;2.80;;;12.80;99.90;;;;;;7286988;19;20206;-77
2024/03/13 02:43:28;;;;;;;11.53;2.60;;;12.70;99.90;;;;;;7308121;19;20202;-78
2024/03/13 02:45:53;;;;;;;10.37;2.60;;;12.60;99.90;;;;;;7283756;19;20188;-78
2024/03/13 02:48:19;;;;;;;11.77;2.20;;;12.70;99.90;;;;;;7285376;19;20205;-77
2024/03/13 02:50:45;;;;;;;13.03;2.50;;;12.60;99.90;;;;;;7285638;19;20193;-77
2024/03/13 02:53:11;;;;;;;11.97;2.60;;;12.60;99.90;;;;;;7283790;19;20205;-77
2024/03/13 02:55:37;;;;;;;11.90;2.10;;;12.60;99.90;;;;;;7285741;19;20253;-77
2024/03/13 02:58:03;;;;;;;10.43;2.20;;;12.70;99.90;;;;;;7286808;19;20460;-78
2024/03/13 03:00:30;;;;;;;15.10;2.57;;;12.70;99.90;;;;;;7304842;19;20198;-77
2024/03/13 03:02:56;;;;;;;12.77;2.67;;;12.60;99.90;;;;;;7303655;19;20984;-77
2024/03/13 03:05:22;;;;;;;10.03;2.27;;;12.70;99.90;;;;;;7285848;19;20201;-77
2024/03/13 03:07:48;;;;;;;13.90;2.40;;;12.80;99.90;;;;;;7286546;19;20197;-77
2024/03/13 03:10:15;;;;;;;10.33;2.37;;;12.90;99.90;;;;;;7287234;19;20673;-77
2024/03/13 03:12:42;;;;;;;10.33;2.67;;;12.90;99.90;;;;;;7285718;19;20189;-77
2024/03/13 03:15:09;;;;;;;11.73;2.43;;;12.80;99.90;;;;;;7286628;19;20237;-78
2024/03/13 03:17:35;;;;;;;12.27;2.73;;;12.80;99.90;;;;;;7284773;19;20689;-78
2024/03/13 03:20:01;;;;;;;12.30;2.80;;;12.90;99.90;;;;;;7287805;19;20213;-78
2024/03/13 03:22:26;;;;;;;12.37;2.60;;;12.90;99.90;;;;;;7308295;19;20189;-77
2024/03/13 03:24:52;;;;;;;12.47;2.63;;;12.90;99.90;;;;;;7286532;19;20185;-77
2024/03/13 03:27:18;;;;;;;10.33;2.27;;;12.80;99.90;;;;;;7284981;19;20201;-77
2024/03/13 03:29:44;;;;;;;10.97;2.90;;;12.80;99.90;;;;;;7286257;19;20243;-77
2024/03/13 03:32:10;;;;;;;7.23;2.53;;;12.80;99.90;;;;;;7286010;19;20198;-78
2024/03/13 03:34:39;;;;;;;14.03;2.60;;;12.90;99.90;;;;;;7283703;19;20229;-78
2024/03/13 03:37:05;;;;;;;12.17;2.53;;;12.90;99.90;;;;;;7284561;19;20204;-78
2024/03/13 03:39:34;;;;;;;10.30;2.37;;;12.90;99.90;;;;;;7287240;19;20190;-77
2024/03/13 03:42:03;;;;;;;18.03;2.83;;;12.90;99.90;;;;;;7296783;19;20207;-77
2024/03/13 03:44:32;;;;;;;12.50;2.57;;;13.00;99.90;;;;;;7307082;19;20666;-77
2024/03/13 03:47:01;;;;;;;11.67;2.90;;;12.90;99.90;;;;;;7283739;19;20200;-78
2024/03/13 03:49:27;;;;;;;13.20;2.53;;;12.90;99.90;;;;;;7285445;19;20179;-78
2024/03/13 03:51:53;;;;;;;14.93;2.90;;;12.90;99.90;;;;;;7284466;19;20541;-77
2024/03/13 03:54:21;;;;;;;14.93;2.83;;;12.90;99.90;;;;;;7285743;19;20673;-78
2024/03/13 03:56:48;;;;;;;11.47;2.40;;;12.90;99.90;;;;;;7284912;19;20526;-77
2024/03/13 03:59:14;;;;;;;12.43;2.90;;;12.90;99.90;;;;;;7283637;19;20198;-78
2024/03/13 04:01:41;;;;;;;13.83;2.90;;;12.90;99.90;;;;;;7284614;19;20190;-77
2024/03/13 04:04:07;;;;;;;14.43;3.23;;;12.90;99.90;;;;;;7283113;19;20232;-77
2024/03/13 04:06:33;;;;;;;11.10;2.57;;;12.80;99.90;;;;;;7282618;19;20193;-77
2024/03/13 04:09:00;;;;;;;14.50;3.07;;;12.90;99.90;;;;;;7303845;19;20203;-77
2024/03/13 04:11:27;;;;;;;11.87;2.60;;;12.90;99.90;;;;;;7282179;19;20190;-77
2024/03/13 04:13:52;;;;;;;14.00;3.00;;;13.00;99.90;;;;;;7279405;19;20190;-78
2024/03/13 04:16:20;;;;;;;11.80;2.90;;;13.00;99.90;;;;;;7282947;19;20204;-78
2024/03/13 04:18:45;;;;;;;9.30;2.93;;;13.00;99.90;;;;;;7281408;19;20193;-78
2024/03/13 04:21:12;;;;;;;17.77;3.33;;;13.10;99.90;;;;;;7284207;19;20591;-78
2024/03/13 04:23:38;;;;;;;15.27;3.43;;;13.00;99.90;;;;;;7283924;19;20195;-77
2024/03/13 04:26:05;;;;;;;12.43;3.90;;;13.10;99.90;;;;;;7281966;19;20228;-78
2024/03/13 04:28:31;;;;;;;12.30;4.00;;;13.00;99.90;;;;;;7289640;19;20184;-78
2024/03/13 04:30:57;;;;;;;15.27;4.13;;;13.00;99.90;;;;;;7304942;19;20186;-78
2024/03/13 04:33:23;;;;;;;13.90;4.27;;;13.10;99.90;;;;;;7282674;19;20626;-77
2024/03/13 04:35:49;;;;;;;16.87;4.83;;;13.00;99.90;;;;;;7282291;19;20187;-78
2024/03/13 04:38:15;;;;;;;19.17;5.83;;;13.00;99.90;;;;;;7282939;19;20202;-78
2024/03/13 04:40:44;;;;;;;14.50;5.50;;;13.00;99.90;;;;;;7283035;19;20643;-78
2024/03/13 04:43:10;;;;;;;19.50;6.50;;;12.90;99.90;;;;;;7283357;19;20257;-78
2024/03/13 04:45:39;;;;;;;17.67;6.90;;;12.90;99.90;;;;;;7281241;19;20207;-78
2024/03/13 04:48:08;;;;;;;22.33;7.73;;;13.00;99.90;;;;;;7283681;19;20186;-78
2024/03/13 04:50:34;;;;;;;22.90;8.23;;;13.10;99.90;;;;;;7282371;19;20245;-78
2024/03/13 04:53:00;;;;;;;18.30;7.80;;;13.10;99.90;;;;;;7298542;19;20836;-78
2024/03/13 04:55:29;;;;;;;20.03;7.83;;;13.20;99.90;;;;;;7302322;19;20193;-78
2024/03/13 04:57:55;;;;;;;19.10;8.53;;;13.20;99.90;;;;;;7282359;19;20206;-77
2024/03/13 05:00:21;;;;;;;20.90;8.13;;;13.00;99.90;;;;;;7281058;19;20191;-77
2024/03/13 05:02:47;;;;;;;21.27;8.57;;;13.10;99.90;;;;;;7283124;19;20210;-77
2024/03/13 05:05:14;;;;;;;18.70;8.53;;;13.10;99.90;;;;;;7280935;19;20193;-77
2024/03/13 05:07:43;;;;;;;22.37;8.73;;;13.00;99.90;;;;;;7282087;19;20190;-77
2024/03/13 05:10:11;;;;;;;25.27;8.90;;;13.10;99.90;;;;;;7282562;19;20190;-77
2024/03/13 05:12:37;;;;;;;23.37;8.63;;;13.10;99.90;;;;;;7282216;19;20692;-77
2024/03/13 05:15:04;;;;;;;20.40;8.90;;;13.10;99.90;;;;;;7281136;19;20192;-77
2024/03/13 05:17:30;;;;;;;22.77;8.07;;;13.10;99.90;;;;;;7298399;19;20187;-76
2024/03/13 05:19:58;;;;;;;20.00;8.03;;;13.00;99.90;;;;;;7299109;19;20218;-78
2024/03/13 05:22:29;;;;;;;19.00;8.03;;;13.00;99.90;;;;;;7281383;19;20218;-78
2024/03/13 05:24:57;;;;;;;20.83;8.43;;;12.90;99.90;;;;;;7281544;19;20273;-77
2024/03/13 05:27:23;;;;;;;21.37;8.53;;;12.80;99.90;;;;;;7282701;19;20231;-77
2024/03/13 05:29:48;;;;;;;17.63;8.13;;;12.70;99.90;;;;;;7282406;19;20193;-77
2024/03/13 05:32:14;;;;;;;16.40;8.27;;;12.70;99.90;;;;;;7280313;19;20185;-78
2024/03/13 05:34:40;;;;;;;20.90;8.83;;;12.70;99.90;;;;;;7280448;19;20200;-78
2024/03/13 05:37:07;;;;;;;17.73;8.67;;;12.80;99.90;;;;;;7281022;19;20595;-77
2024/03/13 05:39:34;;;;;;;22.73;9.00;;;12.90;99.90;;;;;;7281139;19;20194;-77
2024/03/13 05:42:00;;;;;;;22.63;9.47;;;12.80;99.90;;;;;;7298758;19;20194;-77
2024/03/13 05:44:27;;;;;;;19.47;8.73;;;12.90;99.90;;;;;;7292574;19;20189;-78
2024/03/13 05:46:54;;;;;;;17.73;8.43;;;12.80;99.90;;;;;;7280288;19;20190;-77
2024/03/13 05:49:19;;;;;;;22.07;8.60;;;12.90;99.90;;;;;;7280930;19;25929;-78
2024/03/13 05:51:47;;;;;;;18.30;7.87;;;13.00;99.90;;;;;;7278372;19;20198;-77
2024/03/13 05:54:13;;;;;;;21.27;7.37;;;12.90;99.90;;;;;;7279302;19;20266;-78
2024/03/13 05:56:39;;;;;;;19.20;7.97;;;12.90;99.90;;;;;;7280096;19;20289;-78
2024/03/13 05:59:05;;;;;;;18.20;8.07;;;12.90;99.90;;;;;;7286092;19;20259;-76
2024/03/13 06:01:31;;;;;;;21.13;7.30;;;12.90;99.90;;;;;;7300334;19;20207;-76
2024/03/13 06:03:58;;;;;;;19.73;6.80;;;12.90;99.90;;;;;;7306539;19;20200;-77
2024/03/13 06:06:24;;;;;;;17.53;6.37;;;12.80;99.90;;;;;;7287826;19;20210;-78
2024/03/13 06:08:51;;;;;;;16.40;6.13;;;12.80;99.90;;;;;;7289307;19;20225;-78
2024/03/13 06:11:19;;;;;;;17.87;7.50;;;12.80;99.90;;;;;;7287950;19;20190;-79
2024/03/13 06:13:45;;;;;;;144.10;12.03;;;12.80;99.90;;;;;;7287142;19;20200;-77
2024/03/13 06:16:11;;;;;;;21.30;7.20;;;12.80;99.90;;;;;;7287085;19;20551;-78
2024/03/13 06:18:37;;;;;;;14.53;6.20;;;12.80;99.90;;;;;;7287717;19;20193;-78
2024/03/13 06:21:07;;;;;;;20.00;7.50;;;12.80;99.90;;;;;;7288948;19;20190;-78
2024/03/13 06:23:36;;;;;;;27.03;8.37;;;12.80;99.90;;;;;;7288604;19;20249;-77
2024/03/13 06:26:03;;;;;;;19.80;6.83;;;12.80;99.90;;;;;;7287569;19;20189;-78
2024/03/13 06:31:15;;;;;;;16.17;6.87;;;12.90;99.90;;;;;;7183916;19;2006255;-79
2024/03/13 06:33:41;;;;;;;18.30;6.97;;;13.00;99.90;;;;;;7287611;19;20196;-79
2024/03/13 06:36:07;;;;;;;19.50;7.07;;;12.90;99.90;;;;;;7286804;19;20201;-79
2024/03/13 06:38:33;;;;;;;20.87;7.03;;;13.00;99.90;;;;;;7284062;19;20195;-78
2024/03/13 06:41:00;;;;;;;17.63;7.53;;;12.90;99.90;;;;;;7309400;19;20198;-79
2024/03/13 06:43:26;;;;;;;18.23;7.43;;;12.90;99.90;;;;;;7286665;19;20206;-78
2024/03/13 06:45:52;;;;;;;16.83;7.23;;;12.90;99.90;;;;;;7284592;19;20190;-78
2024/03/13 06:48:18;;;;;;;18.90;7.87;;;12.90;99.90;;;;;;7287303;19;20186;-79
2024/03/13 06:50:44;;;;;;;16.63;7.73;;;12.90;99.90;;;;;;7287378;19;20225;-79
2024/03/13 06:53:11;;;;;;;20.03;7.90;;;12.90;99.90;;;;;;7287045;19;20186;-79
2024/03/13 06:55:37;;;;;;;22.13;8.33;;;12.90;99.90;;;;;;7287081;19;20689;-79
2024/03/13 06:58:04;;;;;;;19.30;8.03;;;12.90;99.90;;;;;;7285919;19;20259;-78
2024/03/13 07:00:32;;;;;;;16.27;7.63;;;13.00;99.90;;;;;;7307855;19;20539;-79
2024/03/13 07:03:04;;;;;;;19.33;7.53;;;12.90;99.90;;;;;;7285587;19;20215;-79
2024/03/13 07:05:29;;;;;;;16.67;7.40;;;12.90;99.90;;;;;;7285263;19;20177;-79
2024/03/13 07:07:56;;;;;;;15.67;7.03;;;13.00;99.90;;;;;;7287378;19;20205;-80
2024/03/13 07:10:22;;;;;;;17.63;6.43;;;13.00;99.90;;;;;;7284905;19;20632;-78
2024/03/13 07:12:48;;;;;;;15.17;6.03;;;13.10;99.90;;;;;;7285772;19;20191;-79
2024/03/13 07:15:14;;;;;;;13.30;5.77;;;13.20;99.90;;;;;;7284647;19;20231;-80
2024/03/13 07:17:42;;;;;;;15.83;7.27;;;13.30;99.90;;;;;;7286417;19;20208;-79
2024/03/13 07:20:12;;;;;;;16.57;6.43;;;13.30;99.90;;;;;;7284865;19;20194;-79
2024/03/13 07:22:38;;;;;;;15.30;6.97;;;13.30;99.90;;;;;;7286870;19;20203;-79
2024/03/13 07:25:09;;;;;;;22.63;7.60;;;13.40;99.90;;;;;;7286023;19;21018;-79
2024/03/13 07:27:38;;;;;;;18.77;7.97;;;13.40;99.90;;;;;;7286282;19;20651;-79
2024/03/13 07:30:05;;;;;;;15.90;6.90;;;13.30;99.90;;;;;;7284528;19;20713;-79
2024/03/13 07:32:34;;;;;;;22.23;7.30;;;13.30;99.90;;;;;;7295137;19;20187;-79
2024/03/13 07:35:00;;;;;;;17.87;6.67;;;13.30;99.90;;;;;;7308548;19;20546;-79
2024/03/13 07:37:26;;;;;;;19.27;7.50;;;13.40;99.90;;;;;;7300155;19;20220;-79
2024/03/13 07:39:58;;;;;;;15.30;6.17;;;13.50;99.90;;;;;;7284074;19;20658;-79
2024/03/13 07:42:25;;;;;;;17.63;7.07;;;13.50;99.90;;;;;;7284832;19;20177;-79
2024/03/13 07:44:54;;;;;;;14.20;5.37;;;13.70;99.90;;;;;;7285197;19;20625;-79
2024/03/13 07:47:20;;;;;;;16.13;5.60;;;13.60;99.90;;;;;;7285319;19;20265;-79
2024/03/13 07:49:47;;;;;;;12.57;5.00;;;13.70;99.90;;;;;;7289315;19;20200;-79
2024/03/13 07:52:14;;;;;;;10.70;4.53;;;13.70;99.90;;;;;;7285938;19;20195;-79
2024/03/13 07:54:40;;;;;;;13.70;4.70;;;13.80;99.90;;;;;;7285677;19;20200;-79
2024/03/13 07:57:08;;;;;;;13.43;4.23;;;13.90;99.90;;;;;;7286370;19;20187;-79
2024/03/13 07:59:35;;;;;;;12.37;4.20;;;13.90;99.90;;;;;;7286334;19;20184;-79
2024/03/13 08:02:02;;;;;;;12.60;4.07;;;14.00;99.90;;;;;;7303186;19;20215;-78
2024/03/13 08:04:28;;;;;;;12.73;4.20;;;14.00;99.90;;;;;;7307408;19;20198;-80
2024/03/13 08:06:55;;;;;;;8.40;3.77;;;14.10;99.90;;;;;;7284142;19;20191;-79
2024/03/13 08:09:28;;;;;;;13.60;3.67;;;14.30;99.90;;;;;;7284153;19;20215;-79
2024/03/13 08:11:54;;;;;;;11.67;3.70;;;14.20;99.90;;;;;;7284172;19;20187;-79
2024/03/13 08:14:21;;;;;;;9.50;3.13;;;14.20;99.90;;;;;;7283548;19;25174;-79
2024/03/13 08:16:47;;;;;;;11.27;3.83;;;14.00;99.90;;;;;;7284261;19;20261;-79
2024/03/13 08:19:13;;;;;;;11.53;3.60;;;13.90;99.90;;;;;;7284657;19;20191;-80
2024/03/13 08:21:39;;;;;;;13.97;3.77;;;13.80;99.90;;;;;;7282549;19;20266;-79
2024/03/13 08:24:06;;;;;;;11.40;4.00;;;13.60;99.90;;;;;;7283690;19;20188;-79
2024/03/13 08:26:32;;;;;;;11.20;3.30;;;13.70;99.90;;;;;;7288566;19;20185;-79
2024/03/13 08:28:57;;;;;;;12.53;2.80;;;13.80;99.90;;;;;;7304660;19;20212;-79
2024/03/13 08:31:23;;;;;;;9.10;2.77;;;13.80;99.90;;;;;;7284095;19;20193;-79
2024/03/13 08:33:49;;;;;;;8.20;2.80;;;13.90;99.90;;;;;;7284228;19;20181;-79
2024/03/13 08:36:18;;;;;;;10.00;2.83;;;14.00;99.90;;;;;;7284727;19;20268;-79
2024/03/13 08:38:44;;;;;;;14.73;3.13;;;14.00;99.90;;;;;;7283578;19;20269;-79
2024/03/13 08:41:13;;;;;;;12.37;2.80;;;14.10;99.90;;;;;;7284541;19;20256;-79
2024/03/13 08:43:38;;;;;;;11.10;2.90;;;14.10;99.90;;;;;;7284454;19;20274;-79
2024/03/13 08:46:04;;;;;;;9.10;2.73;;;14.10;99.90;;;;;;7283259;19;20215;-79
2024/03/13 08:48:30;;;;;;;9.63;2.80;;;14.10;99.90;;;;;;7306263;19;20190;-80
2024/03/13 08:50:57;;;;;;;11.40;2.93;;;14.20;99.90;;;;;;7285488;19;20202;-80
2024/03/13 08:53:27;;;;;;;11.77;2.70;;;14.20;99.90;;;;;;7283349;19;20579;-81
2024/03/13 08:55:56;;;;;;;7.67;2.77;;;14.20;99.90;;;;;;7284091;19;20199;-80
2024/03/13 08:58:22;;;;;;;10.33;3.40;;;14.20;99.90;;;;;;7282906;19;20178;-80
2024/03/13 09:00:48;;;;;;;9.60;2.87;;;14.10;99.90;;;;;;7283797;19;20192;-80
2024/03/13 09:03:14;;;;;;;7.30;2.90;;;14.30;99.90;;;;;;7283713;19;20668;-81
2024/03/13 09:05:40;;;;;;;9.83;2.30;;;14.60;99.90;;;;;;7281706;19;20565;-81
2024/03/13 09:08:07;;;;;;;7.80;2.60;;;14.90;99.90;;;;;;7282707;19;20245;-80
2024/03/13 09:10:33;;;;;;;11.17;2.40;;;15.10;99.90;;;;;;7278194;19;20192;-80
2024/03/13 09:12:58;;;;;;;6.43;2.30;;;15.20;99.90;;;;;;7304819;19;20622;-80
2024/03/13 09:15:24;;;;;;;10.97;2.30;;;15.20;99.90;;;;;;7283964;19;20601;-80
2024/03/13 09:17:51;;;;;;;7.10;2.30;;;15.30;99.90;;;;;;7283875;19;20201;-80
2024/03/13 09:20:18;;;;;;;9.27;2.50;;;15.10;99.90;;;;;;7283453;19;20206;-80
2024/03/13 09:22:44;;;;;;;7.67;2.20;;;15.20;99.90;;;;;;7283519;19;20693;-80
2024/03/13 09:25:12;;;;;;;7.97;2.30;;;15.30;99.90;;;;;;7282668;19;20185;-79
2024/03/13 09:27:39;;;;;;;7.57;2.40;;;15.50;99.90;;;;;;7282243;19;20181;-81
2024/03/13 09:30:08;;;;;;;6.50;2.23;;;15.80;99.90;;;;;;7282961;19;20201;-80
2024/03/13 09:32:35;;;;;;;5.90;2.20;;;16.00;99.90;;;;;;7283454;19;20953;-80
2024/03/13 09:35:04;;;;;;;5.23;1.93;;;16.20;99.90;;;;;;7301519;19;20719;-79
2024/03/13 09:37:31;;;;;;;8.13;2.13;;;16.20;99.90;;;;;;7305973;19;20699;-80
2024/03/13 09:39:58;;;;;;;7.00;1.93;;;16.30;99.90;;;;;;7282006;19;20190;-80
2024/03/13 09:42:27;;;;;;;8.73;2.00;;;16.40;99.90;;;;;;7282670;19;20685;-80
2024/03/13 09:44:56;;;;;;;7.50;1.93;;;16.30;99.90;;;;;;7282649;19;20194;-80
2024/03/13 09:47:26;;;;;;;7.17;1.93;;;16.20;99.90;;;;;;7282155;19;20699;-83
2024/03/13 09:49:55;;;;;;;4.77;2.00;;;16.20;99.90;;;;;;7283062;19;20251;-79
2024/03/13 09:52:24;;;;;;;7.23;1.87;;;16.30;99.90;;;;;;7283243;19;20690;-79
2024/03/13 09:54:50;;;;;;;6.70;1.63;;;16.10;99.90;;;;;;7281245;19;20281;-79
2024/03/13 09:57:17;;;;;;;5.17;1.53;;;15.90;99.90;;;;;;7281235;19;20195;-79
2024/03/13 09:59:43;;;;;;;6.67;1.70;;;16.10;99.90;;;;;;7281159;19;20190;-82
2024/03/13 10:02:16;;;;;;;6.63;1.60;;;16.20;99.90;;;;;;7281705;19;20217;-81
2024/03/13 10:04:42;;;;;;;6.07;1.53;;;16.30;99.90;;;;;;7278724;19;20211;-81
2024/03/13 10:07:20;;;;;;;5.93;1.60;;;16.30;99.90;;;;;;7285100;19;20763;-81
2024/03/13 10:09:49;;;;;;;5.60;1.20;;;16.30;99.90;;;;;;7278387;19;20196;-81
2024/03/13 10:12:20;;;;;;;7.97;1.40;;;16.40;99.90;;;;;;7281075;19;20202;-81
2024/03/13 10:14:50;;;;;;;4.00;1.30;;;16.40;99.90;;;;;;7280899;19;20664;-81
2024/03/13 10:17:23;;;;;;;4.37;1.47;;;16.20;99.90;;;;;;7280840;19;20200;-81
2024/03/13 10:19:53;;;;;;;5.73;1.57;;;16.20;99.90;;;;;;7280271;19;20266;-81
2024/03/13 10:22:20;;;;;;;5.30;1.47;;;15.80;99.90;;;;;;7281218;19;20187;-81
2024/03/13 10:24:51;;;;;;;5.57;1.50;;;15.40;99.90;;;;;;7281178;19;20190;-80
2024/03/13 10:27:20;;;;;;;6.27;1.70;;;15.30;99.90;;;;;;7281300;19;20219;-80
2024/03/13 10:29:48;;;;;;;5.47;1.57;;;15.30;99.90;;;;;;7280403;19;20583;-81
2024/03/13 10:32:16;;;;;;;2.77;1.50;;;15.30;99.90;;;;;;7280408;19;20202;-81
2024/03/13 10:34:42;;;;;;;5.87;1.97;;;15.40;99.90;;;;;;7280270;19;20192;-81
2024/03/13 10:37:12;;;;;;;5.53;2.00;;;15.30;99.90;;;;;;7279719;19;20199;-81
2024/03/13 10:39:41;;;;;;;8.63;2.40;;;15.40;99.90;;;;;;7277216;19;20195;-80
2024/03/13 10:42:08;;;;;;;5.47;2.10;;;15.40;99.90;;;;;;7279986;19;20210;-80
2024/03/13 10:44:35;;;;;;;6.37;2.00;;;15.70;99.90;;;;;;7281977;19;20254;-80
2024/03/13 10:47:01;;;;;;;4.37;2.00;;;16.00;99.90;;;;;;7300099;19;20574;-79
2024/03/13 10:49:28;;;;;;;4.80;1.60;;;16.30;99.90;;;;;;7299725;19;20250;-81
2024/03/13 10:51:57;;;;;;;5.70;1.83;;;16.40;99.90;;;;;;7283082;19;20211;-81
2024/03/13 10:54:24;;;;;;;3.23;1.40;;;16.00;99.90;;;;;;7284193;19;20201;-80
2024/03/13 10:56:51;;;;;;;5.53;1.30;;;15.60;99.90;;;;;;7283953;19;20977;-79
2024/03/13 10:59:18;;;;;;;3.00;1.30;;;15.60;99.90;;;;;;7285801;19;20190;-80
2024/03/13 11:01:47;;;;;;;5.47;1.17;;;15.70;99.90;;;;;;7285601;19;20258;-80
2024/03/13 11:04:14;;;;;;;3.03;0.90;;;15.90;99.90;;;;;;7285792;19;20269;-80
2024/03/13 11:06:40;;;;;;;3.40;1.00;;;16.10;99.90;;;;;;7284226;19;20234;-80
2024/03/13 11:09:20;;;;;;;2.10;0.83;;;16.30;99.90;;;;;;7286812;19;20193;-80
2024/03/13 11:11:56;;;;;;;2.57;0.70;;;16.50;99.90;;;;;;7287730;19;20259;-80
2024/03/13 11:14:25;;;;;;;2.00;0.70;;;16.50;99.90;;;;;;7287235;19;20194;-80
2024/03/13 11:16:57;;;;;;;3.47;1.00;;;16.40;99.90;;;;;;7287711;19;20210;-80
2024/03/13 11:19:27;;;;;;;5.97;1.10;;;16.30;99.90;;;;;;7286108;19;21020;-80
2024/03/13 11:21:56;;;;;;;3.67;0.90;;;16.40;99.90;;;;;;7286519;19;20212;-80
2024/03/13 11:24:25;;;;;;;3.90;1.00;;;16.10;99.90;;;;;;7287112;19;20195;-80
2024/03/13 11:27:03;;;;;;;1.60;0.80;;;16.10;99.90;;;;;;7287216;19;20228;-80
2024/03/13 11:29:39;;;;;;;2.90;0.80;;;16.20;99.90;;;;;;7287265;19;20208;-80
2024/03/13 11:32:06;;;;;;;2.07;0.70;;;16.40;99.90;;;;;;7263370;19;20182;-79
2024/03/13 11:34:32;;;;;;;1.70;0.70;;;16.30;99.90;;;;;;7290969;19;20674;-78
2024/03/13 11:36:58;;;;;;;3.73;0.80;;;16.10;99.90;;;;;;7309169;19;20211;-79
2024/03/13 11:39:24;;;;;;;1.30;0.80;;;16.10;99.90;;;;;;7286763;19;20636;-79
2024/03/13 11:41:50;;;;;;;2.30;0.70;;;16.20;99.90;;;;;;7285446;19;20191;-79
2024/03/13 11:44:17;;;;;;;1.13;0.60;;;16.30;99.90;;;;;;7285129;19;20186;-79
2024/03/13 11:46:45;;;;;;;2.80;0.70;;;16.60;99.90;;;;;;7286093;19;20188;-79
2024/03/13 11:49:13;;;;;;;4.20;0.80;;;16.80;99.90;;;;;;7286869;19;20251;-79
2024/03/13 11:52:02;;;;;;;5.43;0.80;;;17.00;99.90;;;;;;7283090;19;20198;-79
2024/03/13 11:54:34;;;;;;;2.43;0.60;;;17.00;99.90;;;;;;7285283;19;20198;-79
2024/03/13 11:57:09;;;;;;;1.17;0.70;;;16.90;99.90;;;;;;7286317;19;20223;-79
2024/03/13 11:59:41;;;;;;;0.90;0.60;;;16.90;99.90;;;;;;7180671;19;2004589;-79
2024/03/13 12:02:32;;;;;;;1.40;0.50;;;16.90;99.90;;;;;;7284232;19;20201;-79
2024/03/13 12:05:06;;;;;;;3.07;0.70;;;16.90;99.90;;;;;;7284144;19;20185;-80
2024/03/13 12:07:42;;;;;;;4.73;0.87;;;16.80;99.90;;;;;;7277446;19;20197;-79
2024/03/13 12:10:19;;;;;;;2.97;0.93;;;16.80;99.90;;;;;;7283024;19;20250;-80
2024/03/13 12:12:46;;;;;;;3.70;1.10;;;16.90;99.90;;;;;;7284345;19;20270;-81
2024/03/13 12:15:19;;;;;;;3.37;1.00;;;16.80;99.90;;;;;;7294612;19;20188;-80
2024/03/13 12:17:47;;;;;;;3.13;1.50;;;16.60;99.90;;;;;;7293608;19;20207;-80
2024/03/13 12:20:17;;;;;;;2.53;0.90;;;16.70;99.90;;;;;;7288316;19;20189;-80
2024/03/13 12:22:44;;;;;;;3.27;0.90;;;16.70;99.90;;;;;;7296101;19;20189;-81
2024/03/13 12:25:13;;;;;;;2.67;0.90;;;16.80;99.90;;;;;;7292931;19;20291;-80
2024/03/13 12:27:46;;;;;;;1.83;0.80;;;16.90;99.90;;;;;;7291484;19;20185;-80
2024/03/13 12:30:12;;;;;;;4.40;0.87;;;17.00;99.90;;;;;;7281970;19;20201;-80
2024/03/13 12:32:38;;;;;;;4.13;1.03;;;16.90;99.90;;;;;;7281762;19;20185;-80
2024/03/13 12:35:09;;;;;;;2.63;0.67;;;16.60;99.90;;;;;;7284725;19;20249;-80
2024/03/13 12:37:35;;;;;;;3.70;1.00;;;16.50;99.90;;;;;;7282816;19;20646;-80
2024/03/13 12:40:11;;;;;;;2.67;1.00;;;16.40;99.90;;;;;;7301952;19;20178;-79
2024/03/13 12:42:40;;;;;;;2.47;1.00;;;16.30;99.90;;;;;;7282874;19;20205;-80
2024/03/13 12:45:11;;;;;;;2.90;0.90;;;16.10;99.90;;;;;;7283988;19;20192;-80
2024/03/13 12:47:40;;;;;;;3.07;1.13;;;15.90;99.90;;;;;;7283511;19;20311;-80
2024/03/13 12:50:11;;;;;;;1.93;0.80;;;15.90;99.90;;;;;;7282473;19;20197;-80
2024/03/13 12:52:40;;;;;;;3.83;0.90;;;15.70;99.90;;;;;;7281139;19;20200;-80
2024/03/13 12:55:07;;;;;;;2.27;1.00;;;15.70;99.90;;;;;;7284180;19;20645;-80
2024/03/13 12:57:40;;;;;;;2.33;1.00;;;15.80;99.90;;;;;;7285033;19;20613;-80
2024/03/13 13:00:13;;;;;;;2.37;0.90;;;16.00;99.90;;;;;;7282274;19;20189;-80
2024/03/13 13:02:44;;;;;;;3.13;0.97;;;16.00;99.90;;;;;;7284447;19;20190;-80
2024/03/13 13:05:12;;;;;;;4.93;0.93;;;15.90;99.90;;;;;;7281445;19;20266;-80